Eagleton, Wisconsin
Current Conditions -  °F | °C
As of 7:15 AM on Sunday 23 Nov 2014 (Local Time) from KY23 Reporting Station
Moderate Fog Moderate Fog  
Wind Chill: 40°   Ceiling: 200
Heat Index: 43°   Visibility: 0mi
Dew Point: 43°   Wind: 6mph
Humidity: 100%   Direction: 140°SE
Pressure: 29.48"   Gusts: NA
Location:  45.1062°N, 91.4948°W
Report Text: KY23 231315Z AUTO 14005KT M1/4SM FG OVC002 06/06 A2948 RMK AO2 T00630063
Loading
Personal Weather Stations






























Interactive Weather Map New forecast layout! Learn more

10-Day Weather Forecast

Advertisements
Track Severe Weather on mobile